createdAt,value
2022-08-17T00:01:26.252Z,88.20
2022-08-17T00:06:32.521Z,88.80
2022-08-17T00:11:39.445Z,88.60
2022-08-17T00:16:51.001Z,88.60
2022-08-17T00:22:33.912Z,89.00
2022-08-17T00:27:26.500Z,89.20
2022-08-17T00:33:13.603Z,89.40
2022-08-17T00:37:55.606Z,89.20
2022-08-17T00:43:13.634Z,89.00
2022-08-17T00:48:29.471Z,89.20
2022-08-17T00:53:41.918Z,89.40
2022-08-17T00:58:45.741Z,89.70
2022-08-17T01:03:50.189Z,89.60
2022-08-17T01:08:57.495Z,89.60
2022-08-17T01:14:01.495Z,89.70
2022-08-17T01:19:16.744Z,89.80
2022-08-17T01:24:21.892Z,90.00
2022-08-17T01:29:26.854Z,90.10
2022-08-17T01:34:42.745Z,90.20
2022-08-17T01:39:52.758Z,90.30
2022-08-17T01:44:58.916Z,90.30
2022-08-17T01:50:08.602Z,90.30
2022-08-17T01:55:16.713Z,90.40
2022-08-17T02:00:20.349Z,90.40
2022-08-17T02:05:24.567Z,90.30
2022-08-17T02:10:33.917Z,90.30
2022-08-17T02:15:38.016Z,90.40
2022-08-17T02:20:42.955Z,90.50
2022-08-17T02:25:48.900Z,90.50
2022-08-17T02:31:01.463Z,90.50
2022-08-17T02:36:09.053Z,90.60
2022-08-17T02:41:14.128Z,90.70
2022-08-17T02:46:19.559Z,90.60
2022-08-17T02:51:23.165Z,90.70
2022-08-17T02:56:28.389Z,90.80
2022-08-17T03:01:32.036Z,90.70
2022-08-17T03:06:35.665Z,90.70
2022-08-17T03:11:40.596Z,90.70
2022-08-17T03:16:44.240Z,90.60
2022-08-17T03:21:54.959Z,90.70
2022-08-17T03:27:00.416Z,90.80
2022-08-17T03:32:12.400Z,90.90
2022-08-17T03:37:16.078Z,91.20
2022-08-17T03:42:31.929Z,90.90
2022-08-17T03:47:53.897Z,90.80
2022-08-17T03:53:15.608Z,90.80
2022-08-17T03:58:20.909Z,90.90
2022-08-17T04:03:24.480Z,91.00
2022-08-17T04:08:28.070Z,91.10
2022-08-17T04:13:32.983Z,91.00
2022-08-17T04:18:36.577Z,91.00
2022-08-17T04:23:40.101Z,91.00
2022-08-17T04:28:45.770Z,90.90
2022-08-17T04:33:49.404Z,91.00
2022-08-17T04:38:52.940Z,90.90
2022-08-17T04:43:58.530Z,91.00
2022-08-17T04:49:04.264Z,91.10
2022-08-17T04:54:09.889Z,91.30
2022-08-17T04:59:17.317Z,91.20
2022-08-17T05:04:33.867Z,91.10
2022-08-17T05:09:38.326Z,91.40
2022-08-17T05:14:43.249Z,91.40
2022-08-17T05:19:51.781Z,91.30
2022-08-17T05:24:55.744Z,91.20
2022-08-17T05:30:00.766Z,91.20
2022-08-17T05:35:04.587Z,91.30
2022-08-17T05:40:09.938Z,91.50
2022-08-17T05:45:16.832Z,91.80
2022-08-17T05:50:49.493Z,91.90
2022-08-17T05:56:03.340Z,91.90
2022-08-17T06:01:15.214Z,92.00
2022-08-17T06:06:32.860Z,92.10
2022-08-17T06:11:42.260Z,92.10
2022-08-17T06:16:51.107Z,92.10
2022-08-17T06:21:56.886Z,92.00
2022-08-17T06:27:09.710Z,92.00
2022-08-17T06:32:15.105Z,91.90
2022-08-17T06:37:32.601Z,91.60
2022-08-17T06:43:02.358Z,91.50
2022-08-17T06:48:16.347Z,91.40
2022-08-17T06:53:25.772Z,91.40
2022-08-17T06:58:33.290Z,91.40
2022-08-17T07:03:42.739Z,91.50
2022-08-17T07:08:53.993Z,91.60
2022-08-17T07:14:16.947Z,91.80
2022-08-17T07:19:24.780Z,91.70
2022-08-17T07:24:37.957Z,91.70
2022-08-17T07:29:46.391Z,91.80
2022-08-17T07:35:11.535Z,91.70
2022-08-17T07:40:27.007Z,91.90
2022-08-17T07:45:49.499Z,91.90
2022-08-17T07:50:57.265Z,92.00
2022-08-17T07:56:01.017Z,91.90
2022-08-17T08:01:08.948Z,91.80
2022-08-17T08:06:24.273Z,91.80
2022-08-17T08:11:33.224Z,91.90
2022-08-17T08:16:36.802Z,92.00
2022-08-17T08:21:48.199Z,92.00
2022-08-17T08:26:57.206Z,92.10
2022-08-17T08:32:07.616Z,92.20
2022-08-17T08:37:30.847Z,92.30
2022-08-17T08:42:46.714Z,92.50
2022-08-17T08:48:05.370Z,92.40
2022-08-17T08:53:21.336Z,92.40
2022-08-17T08:58:41.098Z,92.50
2022-08-17T09:04:19.919Z,92.30
2022-08-17T09:09:35.268Z,92.30
2022-08-17T09:14:47.360Z,92.30
2022-08-17T09:19:56.428Z,92.20
2022-08-17T09:25:10.050Z,92.20
2022-08-17T09:30:14.928Z,92.40
2022-08-17T09:35:22.833Z,92.30
2022-08-17T09:40:33.950Z,92.30
2022-08-17T09:45:42.794Z,92.30
2022-08-17T09:51:04.358Z,92.40
2022-08-17T09:56:29.495Z,92.30
2022-08-17T10:01:39.810Z,92.30
2022-08-17T10:06:52.976Z,92.30
2022-08-17T10:12:20.372Z,92.20
2022-08-17T10:17:36.337Z,92.20
2022-08-17T10:23:02.144Z,92.30
2022-08-17T10:28:19.714Z,92.20
2022-08-17T10:33:26.878Z,92.20
2022-08-17T10:38:41.018Z,92.10
2022-08-17T10:43:55.856Z,92.10
2022-08-17T10:49:32.644Z,92.00
2022-08-17T10:54:46.261Z,91.80
2022-08-17T10:59:53.571Z,91.60
2022-08-17T11:05:18.686Z,91.40
2022-08-17T11:10:37.248Z,90.90
2022-08-17T11:15:58.734Z,90.20
2022-08-17T11:21:23.928Z,89.20
2022-08-17T11:26:32.046Z,87.40
2022-08-17T11:31:40.444Z,85.90
2022-08-17T11:37:33.054Z,85.50
2022-08-17T11:42:51.297Z,84.70
2022-08-17T11:48:28.802Z,84.50
2022-08-17T11:54:30.637Z,83.10
2022-08-17T11:59:58.876Z,81.40
2022-08-17T12:05:27.317Z,79.20
2022-08-17T12:10:34.323Z,78.40
2022-08-17T12:15:42.373Z,78.50
2022-08-17T12:20:56.544Z,79.10
2022-08-17T12:26:02.082Z,78.70
2022-08-17T12:31:08.850Z,77.90
2022-08-17T12:36:17.142Z,77.50
2022-08-17T12:41:31.648Z,76.20
2022-08-17T12:46:48.958Z,73.60
2022-08-17T12:52:13.455Z,72.10
2022-08-17T12:57:20.540Z,70.00
2022-08-17T13:02:42.441Z,68.20
2022-08-17T13:07:48.483Z,67.10
2022-08-17T13:12:53.180Z,66.00
2022-08-17T13:18:04.093Z,66.00
2022-08-17T13:23:20.445Z,64.30
2022-08-17T13:28:32.444Z,63.00
2022-08-17T13:33:44.901Z,62.50
2022-08-17T13:38:51.641Z,62.60
2022-08-17T13:43:55.223Z,62.10
2022-08-17T13:49:04.458Z,62.40
2022-08-17T13:54:24.499Z,63.00
2022-08-17T13:59:52.894Z,63.00
2022-08-17T14:05:01.887Z,62.60
2022-08-17T14:10:15.291Z,61.20
2022-08-17T14:15:21.550Z,60.10
2022-08-17T14:20:25.662Z,59.30
2022-08-17T14:25:31.124Z,59.20
2022-08-17T14:30:35.646Z,58.20
2022-08-17T14:35:39.259Z,58.00
2022-08-17T14:40:44.213Z,58.20
2022-08-17T14:45:48.179Z,58.00
2022-08-17T14:50:51.515Z,57.50
2022-08-17T14:55:56.429Z,57.60
2022-08-17T15:01:00.278Z,58.20
2022-08-17T15:06:03.983Z,58.10
2022-08-17T15:11:14.310Z,58.50
2022-08-17T15:16:20.051Z,58.70
2022-08-17T15:21:23.631Z,59.30
2022-08-17T15:26:28.755Z,60.50
2022-08-17T15:31:32.588Z,61.40
2022-08-17T15:36:36.336Z,62.00
2022-08-17T15:41:41.273Z,62.60
2022-08-17T15:46:44.839Z,63.40
2022-08-17T15:51:48.369Z,63.70
2022-08-17T15:56:53.447Z,64.40
2022-08-17T16:03:15.302Z,63.70
2022-08-17T16:07:26.381Z,63.70
2022-08-17T16:12:31.805Z,63.50
2022-08-17T16:17:39.730Z,63.30
2022-08-17T16:22:46.492Z,63.20
2022-08-17T16:27:53.540Z,64.10
2022-08-17T16:32:59.582Z,65.10
2022-08-17T16:38:03.390Z,65.30
2022-08-17T16:43:10.629Z,65.40
2022-08-17T16:48:15.605Z,65.30
2022-08-17T16:53:20.251Z,65.30
2022-08-17T16:58:25.210Z,65.10
2022-08-17T17:03:30.793Z,65.30
2022-08-17T17:08:42.077Z,66.00
2022-08-17T17:13:54.036Z,67.40
2022-08-17T17:19:06.593Z,67.50
2022-08-17T17:24:16.059Z,67.90
2022-08-17T17:29:47.390Z,68.60
2022-08-17T17:34:58.775Z,68.10
2022-08-17T17:40:07.529Z,68.00
2022-08-17T17:45:18.188Z,67.80
2022-08-17T17:50:30.564Z,68.10
2022-08-17T17:55:48.268Z,68.70
2022-08-17T18:01:05.946Z,69.50
2022-08-17T18:06:21.593Z,69.80
2022-08-17T18:11:55.042Z,70.70
2022-08-17T18:17:04.614Z,71.60
2022-08-17T18:22:14.109Z,72.20
2022-08-17T18:27:24.922Z,72.50
2022-08-17T18:32:36.250Z,72.90
2022-08-17T18:37:45.059Z,73.10
2022-08-17T18:43:03.045Z,73.20
2022-08-17T18:48:26.205Z,73.40
2022-08-17T18:53:37.791Z,73.30
2022-08-17T18:58:41.371Z,73.30
2022-08-17T19:03:46.689Z,73.10
2022-08-17T19:08:50.417Z,73.40
2022-08-17T19:13:58.506Z,73.90
2022-08-17T19:19:12.703Z,74.50
2022-08-17T19:24:20.165Z,74.70
2022-08-17T19:29:30.598Z,74.90
2022-08-17T19:34:37.719Z,75.50
2022-08-17T19:39:49.049Z,76.00
2022-08-17T19:45:00.599Z,76.40
2022-08-17T19:50:13.243Z,77.00
2022-08-17T19:55:26.179Z,77.70
2022-08-17T20:00:31.557Z,78.10
2022-08-17T20:06:01.343Z,78.40
2022-08-17T20:11:09.998Z,78.90
2022-08-17T20:16:13.806Z,79.00
2022-08-17T20:21:24.641Z,79.10
2022-08-17T20:26:36.385Z,79.30
2022-08-17T20:31:47.019Z,79.70
2022-08-17T20:37:02.520Z,80.10
2022-08-17T20:42:10.963Z,80.60
2022-08-17T20:47:26.925Z,80.80
2022-08-17T20:52:54.239Z,80.90
2022-08-17T20:57:57.877Z,81.10
2022-08-17T21:03:47.929Z,81.10
2022-08-17T21:08:59.363Z,81.60
2022-08-17T21:14:10.241Z,81.60
2022-08-17T21:19:31.048Z,81.80
2022-08-17T21:24:50.087Z,82.00
2022-08-17T21:30:12.341Z,82.20
2022-08-17T21:35:30.062Z,82.70
2022-08-17T21:40:35.300Z,83.30
2022-08-17T21:45:42.946Z,83.70
2022-08-17T21:50:58.361Z,84.20
2022-08-17T21:56:03.809Z,84.20
2022-08-17T22:01:21.752Z,84.40
2022-08-17T22:06:27.963Z,84.60
2022-08-17T22:11:33.174Z,84.60
2022-08-17T22:16:37.543Z,84.80
2022-08-17T22:21:41.215Z,85.00
2022-08-17T22:27:05.911Z,85.20
2022-08-17T22:32:09.579Z,85.40
2022-08-17T22:37:28.877Z,85.40
2022-08-17T22:42:35.376Z,85.90
2022-08-17T22:47:42.948Z,85.90
2022-08-17T22:53:09.904Z,86.00
2022-08-17T22:58:35.262Z,86.30
2022-08-17T23:03:55.162Z,86.50
2022-08-17T23:08:58.701Z,86.80
2022-08-17T23:14:03.815Z,86.50
2022-08-17T23:19:08.393Z,86.90
2022-08-17T23:24:13.554Z,87.10
2022-08-17T23:29:20.560Z,87.30
2022-08-17T23:34:24.290Z,87.50
2022-08-17T23:39:28.406Z,87.60
2022-08-17T23:44:33.913Z,87.60
2022-08-17T23:49:41.390Z,87.90
2022-08-17T23:54:47.178Z,88.30
2022-08-17T23:59:52.321Z,88.70
